sensor_id;sensor_type;location;lat;lon;timestamp;temperature;humidity
66831;DHT22;53739;44.224;22.528;2023-06-10T02:24:58;460.90;2380.80
66831;DHT22;53739;44.224;22.528;2023-06-10T02:27:23;460.90;2380.80
66831;DHT22;53739;44.224;22.528;2023-06-10T02:29:50;461.10;2380.80
66831;DHT22;53739;44.224;22.528;2023-06-10T02:32:15;461.10;2380.80
66831;DHT22;53739;44.224;22.528;2023-06-10T02:34:42;460.90;2380.80
66831;DHT22;53739;44.224;22.528;2023-06-10T02:37:08;460.90;2380.80
66831;DHT22;53739;44.224;22.528;2023-06-10T02:39:34;460.90;2380.80
66831;DHT22;53739;44.224;22.528;2023-06-10T02:42:00;461.00;2380.80
66831;DHT22;53739;44.224;22.528;2023-06-10T02:44:26;460.90;2380.80
66831;DHT22;53739;44.224;22.528;2023-06-10T02:46:52;461.00;2380.80
66831;DHT22;53739;44.224;22.528;2023-06-10T02:49:18;461.10;2380.80
66831;DHT22;53739;44.224;22.528;2023-06-10T02:51:43;461.10;2380.80
66831;DHT22;53739;44.224;22.528;2023-06-10T02:54:09;461.10;2380.80
66831;DHT22;53739;44.224;22.528;2023-06-10T02:59:02;461.00;2380.80
66831;DHT22;53739;44.224;22.528;2023-06-10T03:01:28;460.90;2380.80
66831;DHT22;53739;44.224;22.528;2023-06-10T03:03:53;460.90;2380.80
66831;DHT22;53739;44.224;22.528;2023-06-10T03:06:21;461.00;2380.80
66831;DHT22;53739;44.224;22.528;2023-06-10T03:08:49;460.90;2380.80
66831;DHT22;53739;44.224;22.528;2023-06-10T03:11:15;461.00;2380.80
66831;DHT22;53739;44.224;22.528;2023-06-10T03:16:07;460.90;2380.80
66831;DHT22;53739;44.224;22.528;2023-06-10T03:18:33;460.90;2380.80
66831;DHT22;53739;44.224;22.528;2023-06-10T03:20:59;460.90;2380.80
66831;DHT22;53739;44.224;22.528;2023-06-10T03:23:25;460.90;2380.80
66831;DHT22;53739;44.224;22.528;2023-06-10T03:25:52;460.80;2380.80
66831;DHT22;53739;44.224;22.528;2023-06-10T03:28:20;460.80;2380.80
66831;DHT22;53739;44.224;22.528;2023-06-10T03:30:47;460.80;2380.80
66831;DHT22;53739;44.224;22.528;2023-06-10T03:33:13;460.90;2380.80
66831;DHT22;53739;44.224;22.528;2023-06-10T03:42:58;436.10;2355.20
66831;DHT22;53739;44.224;22.528;2023-06-10T03:45:24;460.80;2380.80
66831;DHT22;53739;44.224;22.528;2023-06-10T03:47:50;460.90;2380.80
66831;DHT22;53739;44.224;22.528;2023-06-10T03:50:16;460.90;2380.80
66831;DHT22;53739;44.224;22.528;2023-06-10T03:52:41;460.90;2380.80
66831;DHT22;53739;44.224;22.528;2023-06-10T03:55:07;460.90;2380.80
66831;DHT22;53739;44.224;22.528;2023-06-10T03:57:33;460.80;2380.80
66831;DHT22;53739;44.224;22.528;2023-06-10T03:59:59;460.80;2380.80
66831;DHT22;53739;44.224;22.528;2023-06-10T04:02:25;436.10;2355.20
66831;DHT22;53739;44.224;22.528;2023-06-10T04:04:50;460.80;2380.80
66831;DHT22;53739;44.224;22.528;2023-06-10T04:07:17;460.90;2380.80
66831;DHT22;53739;44.224;22.528;2023-06-10T04:09:45;460.90;2380.80
66831;DHT22;53739;44.224;22.528;2023-06-10T04:12:12;460.90;2380.80
66831;DHT22;53739;44.224;22.528;2023-06-10T04:14:37;460.90;2380.80
66831;DHT22;53739;44.224;22.528;2023-06-10T04:17:05;461.00;2380.80
66831;DHT22;53739;44.224;22.528;2023-06-10T04:19:33;461.10;2380.80
66831;DHT22;53739;44.224;22.528;2023-06-10T04:22:01;461.20;2380.80
66831;DHT22;53739;44.224;22.528;2023-06-10T04:24:28;461.20;2380.80
66831;DHT22;53739;44.224;22.528;2023-06-10T04:26:53;461.40;2380.80
66831;DHT22;53739;44.224;22.528;2023-06-10T04:29:19;461.40;2380.80
66831;DHT22;53739;44.224;22.528;2023-06-10T04:31:45;461.50;2380.80
66831;DHT22;53739;44.224;22.528;2023-06-10T04:34:12;461.70;2380.80
66831;DHT22;53739;44.224;22.528;2023-06-10T04:36:38;486.40;2380.80
66831;DHT22;53739;44.224;22.528;2023-06-10T04:39:04;461.70;2380.80
66831;DHT22;53739;44.224;22.528;2023-06-10T04:41:31;486.40;2380.80
66831;DHT22;53739;44.224;22.528;2023-06-10T04:43:57;486.40;2380.80
66831;DHT22;53739;44.224;22.528;2023-06-10T04:46:23;486.50;2380.80
66831;DHT22;53739;44.224;22.528;2023-06-10T04:48:50;486.70;2380.80
66831;DHT22;53739;44.224;22.528;2023-06-10T04:51:16;486.60;2380.80
66831;DHT22;53739;44.224;22.528;2023-06-10T04:53:42;486.70;2380.80
66831;DHT22;53739;44.224;22.528;2023-06-10T04:56:08;486.80;2380.80
66831;DHT22;53739;44.224;22.528;2023-06-10T04:58:34;487.00;2380.80
66831;DHT22;53739;44.224;22.528;2023-06-10T05:01:00;487.00;2380.80
66831;DHT22;53739;44.224;22.528;2023-06-10T05:03:26;487.00;2380.80
66831;DHT22;53739;44.224;22.528;2023-06-10T05:05:52;487.10;2380.80
66831;DHT22;53739;44.224;22.528;2023-06-10T05:08:18;487.30;2380.80
66831;DHT22;53739;44.224;22.528;2023-06-10T05:10:43;512.10;2380.80
66831;DHT22;53739;44.224;22.528;2023-06-10T05:13:09;512.40;2380.80
66831;DHT22;53739;44.224;22.528;2023-06-10T05:15:35;512.50;921.60
66831;DHT22;53739;44.224;22.528;2023-06-10T05:18:01;512.50;1049.60
66831;DHT22;53739;44.224;22.528;2023-06-10T05:20:28;512.70;716.80
66831;DHT22;53739;44.224;22.528;2023-06-10T05:25:21;512.80;128.00
66831;DHT22;53739;44.224;22.528;2023-06-10T05:27:47;512.80;2124.80
66831;DHT22;53739;44.224;22.528;2023-06-10T05:30:13;537.60;2406.40
66831;DHT22;53739;44.224;22.528;2023-06-10T05:32:39;537.90;640.00
66831;DHT22;53739;44.224;22.528;2023-06-10T05:35:05;538.10;2406.40
66831;DHT22;53739;44.224;22.528;2023-06-10T05:37:33;538.20;2406.40
66831;DHT22;53739;44.224;22.528;2023-06-10T05:40:00;538.30;1792.00
66831;DHT22;53739;44.224;22.528;2023-06-10T05:42:26;538.50;128.00
66831;DHT22;53739;44.224;22.528;2023-06-10T05:44:52;538.50;128.00
66831;DHT22;53739;44.224;22.528;2023-06-10T05:47:18;563.20;128.00
66831;DHT22;53739;44.224;22.528;2023-06-10T05:49:43;538.50;128.00
66831;DHT22;53739;44.224;22.528;2023-06-10T05:52:11;563.30;128.00
66831;DHT22;53739;44.224;22.528;2023-06-10T05:54:36;563.50;128.00
66831;DHT22;53739;44.224;22.528;2023-06-10T05:57:02;563.80;128.00
66831;DHT22;53739;44.224;22.528;2023-06-10T05:59:29;564.00;128.00
66831;DHT22;53739;44.224;22.528;2023-06-10T06:04:21;588.90;128.00
66831;DHT22;53739;44.224;22.528;2023-06-10T06:11:39;589.30;128.00
66831;DHT22;53739;44.224;22.528;2023-06-10T07:27:30;614.60;2432.00
66831;DHT22;53739;44.224;22.528;2023-06-10T07:29:56;691.80;153.60
66831;DHT22;53739;44.224;22.528;2023-06-10T07:32:22;691.60;153.60
66831;DHT22;53739;44.224;22.528;2023-06-10T07:34:49;691.50;2432.00
66831;DHT22;53739;44.224;22.528;2023-06-10T07:37:16;691.80;153.60
66831;DHT22;53739;44.224;22.528;2023-06-10T07:39:41;691.80;153.60
66831;DHT22;53739;44.224;22.528;2023-06-10T07:42:08;716.80;179.20
66831;DHT22;53739;44.224;22.528;2023-06-10T07:44:37;716.90;2432.00
66831;DHT22;53739;44.224;22.528;2023-06-10T07:47:03;717.20;1331.20
66831;DHT22;53739;44.224;22.528;2023-06-10T07:49:34;717.10;2432.00
66831;DHT22;53739;44.224;22.528;2023-06-10T07:52:00;717.20;179.20
66831;DHT22;53739;44.224;22.528;2023-06-10T07:54:36;717.20;2432.00
66831;DHT22;53739;44.224;22.528;2023-06-10T07:57:02;716.90;2252.80
66831;DHT22;53739;44.224;22.528;2023-06-10T07:59:32;717.20;2432.00
66831;DHT22;53739;44.224;22.528;2023-06-10T08:01:58;717.00;179.20
66831;DHT22;53739;44.224;22.528;2023-06-10T08:04:24;716.90;179.20
66831;DHT22;53739;44.224;22.528;2023-06-10T08:06:49;692.10;153.60
66831;DHT22;53739;44.224;22.528;2023-06-10T08:09:16;691.80;153.60
66831;DHT22;53739;44.224;22.528;2023-06-10T08:11:42;691.50;153.60
66831;DHT22;53739;44.224;22.528;2023-06-10T08:14:08;692.10;153.60
66831;DHT22;53739;44.224;22.528;2023-06-10T08:16:33;716.90;179.20
66831;DHT22;53739;44.224;22.528;2023-06-10T08:18:59;717.10;179.20
66831;DHT22;53739;44.224;22.528;2023-06-10T19:57:58;512.60;2380.80
66831;DHT22;53739;44.224;22.528;2023-06-10T20:00:24;512.30;2380.80
66831;DHT22;53739;44.224;22.528;2023-06-10T20:05:16;512.20;2380.80
66831;DHT22;53739;44.224;22.528;2023-06-10T20:20:19;487.30;2380.80
66831;DHT22;53739;44.224;22.528;2023-06-10T20:41:27;487.30;2380.80
